createdAt,value
2022-12-17T00:02:41.843Z,-2.77
2022-12-17T00:05:27.088Z,-2.82
2022-12-17T00:08:16.725Z,-2.88
2022-12-17T00:11:01.688Z,-2.97
2022-12-17T00:13:46.851Z,-2.92
2022-12-17T00:16:31.724Z,-2.97
2022-12-17T00:19:16.793Z,-2.84
2022-12-17T00:22:01.568Z,-2.88
2022-12-17T00:24:47.634Z,-3.10
2022-12-17T00:27:32.330Z,-2.91
2022-12-17T00:30:17.036Z,-2.99
2022-12-17T00:36:10.955Z,-2.87
2022-12-17T00:38:55.590Z,-2.97
2022-12-17T00:41:43.073Z,-2.90
2022-12-17T00:44:27.796Z,-2.95
2022-12-17T00:50:25.418Z,-2.98
2022-12-17T00:53:10.750Z,-3.00
2022-12-17T00:55:55.500Z,-2.98
2022-12-17T00:58:42.870Z,-2.95
2022-12-17T01:01:29.354Z,-2.98
2022-12-17T01:04:14.650Z,-2.97
2022-12-17T01:10:08.859Z,-2.71
2022-12-17T01:12:53.442Z,-2.77
2022-12-17T01:15:42.579Z,-2.86
2022-12-17T01:18:31.442Z,-2.85
2022-12-17T01:21:16.130Z,-2.86
2022-12-17T01:24:01.480Z,-2.77
2022-12-17T01:26:46.307Z,-2.76
2022-12-17T01:29:34.210Z,-2.83
2022-12-17T01:32:20.130Z,-2.71
2022-12-17T01:35:08.267Z,-2.63
2022-12-17T01:37:52.881Z,-2.73
2022-12-17T01:40:37.822Z,-2.70
2022-12-17T01:43:36.797Z,-2.77
2022-12-17T01:46:27.876Z,-2.91
2022-12-17T01:49:14.015Z,-2.85
2022-12-17T01:51:58.787Z,-2.94
2022-12-17T01:54:43.630Z,-2.87
2022-12-17T01:57:30.874Z,-2.82
2022-12-17T02:00:18.593Z,-2.92
2022-12-17T02:03:03.874Z,-2.80
2022-12-17T02:06:06.819Z,-2.79
2022-12-17T02:08:59.523Z,-2.81
2022-12-17T02:11:52.270Z,-2.98
2022-12-17T02:14:40.615Z,-2.91
2022-12-17T02:17:29.884Z,-2.93
2022-12-17T02:20:28.071Z,-2.95
2022-12-17T02:23:18.636Z,-2.96
2022-12-17T02:26:06.818Z,-2.84
2022-12-17T02:28:54.754Z,-2.73
2022-12-17T02:34:56.081Z,-2.96
2022-12-17T02:37:40.971Z,-2.86
2022-12-17T02:40:26.313Z,-2.79
2022-12-17T02:43:10.994Z,-2.73
2022-12-17T02:45:58.148Z,-2.70
2022-12-17T02:48:43.107Z,-2.89
2022-12-17T02:51:30.299Z,-2.82
2022-12-17T02:54:14.951Z,-2.83
2022-12-17T03:03:18.957Z,-2.69
2022-12-17T03:06:04.211Z,-2.79
2022-12-17T03:08:49.294Z,-2.73
2022-12-17T03:11:33.969Z,-2.64
2022-12-17T03:14:18.823Z,-2.56
2022-12-17T03:17:03.595Z,-2.61
2022-12-17T03:19:49.964Z,-2.71
2022-12-17T03:22:34.574Z,-2.56
2022-12-17T03:25:19.548Z,-2.67
2022-12-17T03:28:04.169Z,-2.54
2022-12-17T03:30:53.115Z,-2.41
2022-12-17T03:33:38.360Z,-2.37
2022-12-17T03:36:29.110Z,-2.41
2022-12-17T03:39:13.829Z,-2.41
2022-12-17T03:48:32.743Z,-2.53
2022-12-17T03:51:19.682Z,-2.50
2022-12-17T03:54:06.155Z,-2.32
2022-12-17T03:56:50.928Z,-2.42
2022-12-17T03:59:35.650Z,-2.44
2022-12-17T04:02:20.531Z,-2.34
2022-12-17T04:05:05.625Z,-2.41
2022-12-17T04:07:50.391Z,-2.39
2022-12-17T04:10:36.827Z,-2.36
2022-12-17T04:13:21.611Z,-2.53
2022-12-17T04:16:06.524Z,-2.43
2022-12-17T04:18:51.330Z,-2.38
2022-12-17T04:21:36.129Z,-2.40
2022-12-17T04:24:20.920Z,-2.49
2022-12-17T04:27:06.983Z,-2.47
2022-12-17T04:29:51.122Z,-2.52
2022-12-17T04:32:35.970Z,-2.40
2022-12-17T04:38:31.335Z,-2.24
2022-12-17T04:41:16.135Z,-2.12
2022-12-17T04:44:03.352Z,-2.40
2022-12-17T04:46:48.413Z,-2.31
2022-12-17T04:49:33.639Z,-2.32
2022-12-17T04:52:18.437Z,-2.21
2022-12-17T04:55:03.233Z,-2.39
2022-12-17T04:57:48.025Z,-2.41
2022-12-17T05:00:35.336Z,-2.37
2022-12-17T05:03:23.621Z,-2.26
2022-12-17T05:09:14.040Z,-2.31
2022-12-17T05:11:58.626Z,-2.38
2022-12-17T05:14:43.390Z,-2.17
2022-12-17T05:17:29.546Z,-2.20
2022-12-17T05:20:14.323Z,-2.20
2022-12-17T05:22:59.052Z,-2.15
2022-12-17T05:25:43.803Z,-2.08
2022-12-17T05:28:28.508Z,-2.22
2022-12-17T05:31:13.812Z,-2.23
2022-12-17T05:34:00.346Z,-1.96
2022-12-17T05:39:54.781Z,-2.13
2022-12-17T05:42:39.414Z,-1.96
2022-12-17T05:45:36.202Z,-2.15
2022-12-17T05:48:21.359Z,-2.23
2022-12-17T05:51:09.406Z,-2.15
2022-12-17T05:53:55.003Z,-2.18
2022-12-17T05:56:39.754Z,-2.20
2022-12-17T05:59:24.570Z,-2.25
2022-12-17T06:02:09.234Z,-2.14
2022-12-17T06:05:01.841Z,-2.15
2022-12-17T06:17:16.067Z,-1.94
2022-12-17T06:20:00.734Z,-1.92
2022-12-17T06:25:55.836Z,-2.01
2022-12-17T06:28:39.791Z,-1.95
2022-12-17T06:31:24.598Z,-1.88
2022-12-17T06:34:09.467Z,-1.92
2022-12-17T06:40:03.571Z,-1.89
2022-12-17T06:42:49.504Z,-2.11
2022-12-17T06:45:38.019Z,-2.03
2022-12-17T06:48:23.879Z,-1.91
2022-12-17T06:51:12.996Z,-2.00
2022-12-17T06:54:00.484Z,-1.90
2022-12-17T06:59:56.335Z,-1.87
2022-12-17T07:02:41.252Z,-1.79
2022-12-17T07:08:35.757Z,-1.79
2022-12-17T07:11:23.192Z,-1.75
2022-12-17T07:14:08.266Z,-1.68
2022-12-17T07:20:03.691Z,-1.78
2022-12-17T07:22:48.421Z,-1.66
2022-12-17T07:28:42.627Z,-1.58
2022-12-17T07:31:27.568Z,-1.53
2022-12-17T07:34:12.857Z,-1.76
2022-12-17T07:36:57.554Z,-1.59
2022-12-17T07:39:53.884Z,-1.65
2022-12-17T07:42:38.580Z,-1.63
2022-12-17T07:45:23.918Z,-1.51
2022-12-17T07:48:17.826Z,-1.56
2022-12-17T07:51:07.774Z,-1.55
2022-12-17T07:53:52.464Z,-1.50
2022-12-17T07:56:37.322Z,-1.39
2022-12-17T07:59:22.705Z,-1.45
2022-12-17T08:05:16.821Z,-1.40
2022-12-17T08:08:02.934Z,-1.35
2022-12-17T08:10:47.798Z,-1.27
2022-12-17T08:13:32.733Z,-1.45
2022-12-17T08:19:26.702Z,-1.27
2022-12-17T08:22:11.479Z,-1.33
2022-12-17T08:25:00.124Z,-1.23
2022-12-17T08:27:44.774Z,-1.16
2022-12-17T08:30:31.095Z,-1.31
2022-12-17T08:33:19.849Z,-1.13
2022-12-17T08:36:09.074Z,-1.15
2022-12-17T08:38:53.858Z,-1.15
2022-12-17T08:41:40.414Z,-1.00
2022-12-17T08:44:25.184Z,-1.27
2022-12-17T08:56:46.137Z,-1.13
2022-12-17T08:59:32.089Z,-1.15
2022-12-17T09:02:17.003Z,-1.05
2022-12-17T09:05:01.754Z,-1.00
2022-12-17T09:14:04.780Z,-1.05
2022-12-17T09:16:50.974Z,-1.14
2022-12-17T09:19:35.915Z,-1.13
2022-12-17T09:22:20.520Z,-1.08
2022-12-17T09:25:08.950Z,-1.06
2022-12-17T09:27:53.616Z,-1.03
2022-12-17T09:36:57.667Z,-1.03
2022-12-17T09:39:46.104Z,-0.89
2022-12-17T09:42:35.913Z,-1.05
2022-12-17T09:48:37.319Z,-0.82
2022-12-17T09:51:23.957Z,-0.73
2022-12-17T09:54:10.093Z,-0.85
2022-12-17T09:56:55.713Z,-0.79
2022-12-17T09:59:44.253Z,-0.88
2022-12-17T10:02:31.617Z,-0.79
2022-12-17T10:05:17.201Z,-0.70
2022-12-17T10:08:04.199Z,-0.67
2022-12-17T10:10:51.018Z,-0.65
2022-12-17T10:13:37.348Z,-0.54
2022-12-17T10:16:37.937Z,-0.53
2022-12-17T10:19:23.820Z,-0.56
2022-12-17T10:22:08.804Z,-0.78
2022-12-17T10:25:03.452Z,-0.77
2022-12-17T10:27:51.871Z,-0.81
2022-12-17T10:30:36.749Z,-0.89
2022-12-17T10:36:39.363Z,-0.85
2022-12-17T10:39:24.631Z,-0.57
2022-12-17T10:48:38.771Z,-0.54
2022-12-17T10:51:24.659Z,-0.52
2022-12-17T10:54:10.279Z,-0.62
2022-12-17T10:56:55.903Z,-0.47
2022-12-17T10:59:58.455Z,-0.44
2022-12-17T11:05:59.618Z,-0.31
2022-12-17T11:08:41.591Z,-0.31
2022-12-17T11:11:29.344Z,-0.25
2022-12-17T11:14:15.331Z,-0.28
2022-12-17T11:17:07.073Z,-0.17
2022-12-17T11:19:55.086Z,-0.19
2022-12-17T11:22:49.837Z,-0.10
2022-12-17T11:25:57.562Z,-0.27
2022-12-17T11:29:03.602Z,-0.36
2022-12-17T11:35:26.140Z,-0.51
2022-12-17T11:38:18.024Z,-0.32
2022-12-17T11:44:23.831Z,-0.04
2022-12-17T11:47:11.055Z,-0.06
2022-12-17T11:50:02.901Z,0.10
2022-12-17T11:53:07.143Z,0.17
2022-12-17T11:55:55.231Z,0.10
2022-12-17T11:58:42.989Z,-0.02
2022-12-17T12:04:51.217Z,0.09
2022-12-17T12:07:39.572Z,-0.03
2022-12-17T12:10:30.365Z,0.17
2022-12-17T12:13:22.308Z,0.02
2022-12-17T12:16:13.914Z,-0.06
2022-12-17T12:19:02.688Z,0.09
2022-12-17T12:21:55.896Z,0.02
2022-12-17T12:24:50.287Z,-0.01
2022-12-17T12:27:55.396Z,-0.03
2022-12-17T12:30:40.993Z,0.16
2022-12-17T12:33:36.030Z,-0.03
2022-12-17T12:36:22.768Z,-0.01
2022-12-17T12:39:12.000Z,0.21
2022-12-17T12:42:01.451Z,0.16
2022-12-17T12:48:04.559Z,0.40
2022-12-17T12:51:04.851Z,0.44
2022-12-17T12:53:49.582Z,0.30
2022-12-17T12:56:47.868Z,0.24
2022-12-17T12:59:39.580Z,0.29
2022-12-17T13:02:33.067Z,0.26
2022-12-17T13:05:19.151Z,-0.03
2022-12-17T13:07:47.828Z,0.09
2022-12-17T13:10:25.353Z,-0.07
2022-12-17T13:12:52.815Z,-0.04
2022-12-17T13:15:23.162Z,-0.04
2022-12-17T13:18:10.339Z,0.03
2022-12-17T13:20:39.013Z,-0.09
2022-12-17T13:26:23.624Z,-0.20
2022-12-17T13:29:11.294Z,-0.21
2022-12-17T13:31:47.903Z,-0.27
2022-12-17T13:34:19.927Z,-0.19
2022-12-17T13:36:52.184Z,-0.17
2022-12-17T13:39:33.640Z,-0.17
2022-12-17T13:42:01.040Z,-0.16
2022-12-17T13:44:31.419Z,-0.10
2022-12-17T13:47:02.859Z,-0.07
2022-12-17T13:49:31.589Z,-0.18
2022-12-17T13:55:06.458Z,-0.27
2022-12-17T13:57:33.807Z,-0.23
2022-12-17T14:00:02.423Z,-0.32
2022-12-17T14:02:31.305Z,-0.41
2022-12-17T14:05:02.830Z,-0.51
2022-12-17T14:07:39.131Z,-0.45
2022-12-17T14:10:14.818Z,-0.49
2022-12-17T14:12:41.304Z,-0.36
2022-12-17T14:15:17.557Z,-0.42
2022-12-17T14:17:46.211Z,-0.59
2022-12-17T14:20:14.700Z,-0.57
2022-12-17T14:22:51.083Z,-0.50
2022-12-17T14:25:20.198Z,-0.51
2022-12-17T14:27:52.869Z,-0.47
2022-12-17T14:30:21.616Z,-0.35
2022-12-17T14:32:49.602Z,-0.57
2022-12-17T14:35:24.148Z,-0.57
2022-12-17T14:37:52.867Z,-0.39
2022-12-17T14:40:20.698Z,-0.50
2022-12-17T14:42:48.018Z,-0.57
2022-12-17T14:45:23.723Z,-0.65
2022-12-17T14:47:54.901Z,-0.49
2022-12-17T14:50:27.459Z,-0.74
2022-12-17T14:52:57.722Z,-0.52
2022-12-17T14:55:27.010Z,-0.53
2022-12-17T14:57:55.158Z,-0.47
2022-12-17T15:00:22.636Z,-0.54
2022-12-17T15:02:55.958Z,-0.60
2022-12-17T15:05:23.519Z,-0.56
2022-12-17T15:07:51.700Z,-0.64
2022-12-17T15:10:21.744Z,-0.48
2022-12-17T15:12:51.395Z,-0.42
2022-12-17T15:15:20.800Z,-0.48
2022-12-17T15:17:48.176Z,-0.42
2022-12-17T15:20:17.224Z,-0.53
2022-12-17T15:25:43.642Z,-0.57
2022-12-17T15:28:13.053Z,-0.69
2022-12-17T15:33:32.785Z,-0.55
2022-12-17T15:36:00.108Z,-0.61
2022-12-17T15:38:27.567Z,-0.59
2022-12-17T15:40:56.337Z,-0.63
2022-12-17T15:43:23.975Z,-0.68
2022-12-17T15:45:53.743Z,-0.64
2022-12-17T15:48:23.169Z,-0.88
2022-12-17T15:50:50.642Z,-0.63
2022-12-17T15:53:17.982Z,-0.63
2022-12-17T15:58:38.375Z,-0.46
2022-12-17T16:01:06.583Z,-0.11
2022-12-17T16:03:33.968Z,-0.05
2022-12-17T16:06:01.894Z,-0.36
2022-12-17T16:08:29.234Z,-0.05
2022-12-17T16:10:56.671Z,0.03
2022-12-17T16:16:17.223Z,-0.01
2022-12-17T16:18:44.664Z,0.32
2022-12-17T16:21:12.087Z,0.30
2022-12-17T16:23:39.756Z,0.32
2022-12-17T16:26:08.118Z,0.41
2022-12-17T16:28:36.561Z,-0.04
2022-12-17T16:31:05.044Z,-0.13
2022-12-17T16:36:25.787Z,-0.56
2022-12-17T16:38:54.343Z,-0.56
2022-12-17T16:41:22.636Z,-0.64
2022-12-17T16:43:49.949Z,-0.56
2022-12-17T16:46:24.679Z,-0.25
2022-12-17T16:48:53.637Z,-0.28
2022-12-17T16:51:28.426Z,-0.56
2022-12-17T16:53:56.737Z,-0.64
2022-12-17T16:56:25.319Z,-0.97
2022-12-17T16:58:53.692Z,-0.71
2022-12-17T17:01:21.659Z,-0.71
2022-12-17T17:03:50.243Z,-0.69
2022-12-17T17:06:19.493Z,-0.42
2022-12-17T17:08:46.879Z,-0.40
2022-12-17T17:11:18.852Z,-0.65
2022-12-17T17:13:46.395Z,-0.44
2022-12-17T17:16:13.818Z,-0.73
2022-12-17T17:18:41.733Z,-0.82
2022-12-17T17:21:25.874Z,-0.97
2022-12-17T17:23:57.261Z,-1.04
2022-12-17T17:26:25.001Z,-0.94
2022-12-17T17:28:52.808Z,-0.98
2022-12-17T17:31:21.642Z,-0.82
2022-12-17T17:33:49.959Z,-0.87
2022-12-17T17:36:18.378Z,-0.64
2022-12-17T17:38:48.014Z,-0.51
2022-12-17T17:41:16.041Z,-0.61
2022-12-17T17:43:43.550Z,-0.72
2022-12-17T17:49:03.297Z,-1.01
2022-12-17T17:54:25.044Z,-0.72
2022-12-17T17:56:52.481Z,-0.83
2022-12-17T17:59:20.180Z,-1.00
2022-12-17T18:01:49.363Z,-0.81
2022-12-17T18:04:19.976Z,-0.76
2022-12-17T18:07:09.139Z,-0.80
2022-12-17T18:09:36.704Z,-1.29
2022-12-17T18:12:25.042Z,-1.08
2022-12-17T18:15:18.783Z,-0.79
2022-12-17T18:17:39.210Z,-0.87
2022-12-17T18:20:07.306Z,-0.82
2022-12-17T18:22:34.702Z,-1.03
2022-12-17T18:25:03.354Z,-1.24
2022-12-17T18:27:30.707Z,-1.13
2022-12-17T18:29:58.042Z,-1.15
2022-12-17T18:32:25.662Z,-1.17
2022-12-17T18:34:53.123Z,-1.74
2022-12-17T18:37:20.579Z,-1.98
2022-12-17T18:39:48.000Z,-2.11
2022-12-17T18:42:34.241Z,-2.39
2022-12-17T18:45:01.694Z,-2.39
2022-12-17T18:47:29.039Z,-2.26
2022-12-17T18:49:59.766Z,-2.48
2022-12-17T18:52:27.092Z,-2.38
2022-12-17T18:54:54.412Z,-2.27
2022-12-17T18:57:23.082Z,-2.66
2022-12-17T18:59:50.425Z,-2.61
2022-12-17T19:02:19.903Z,-2.92
2022-12-17T19:04:47.324Z,-2.98
2022-12-17T19:07:14.690Z,-3.00
2022-12-17T19:09:42.309Z,-3.04
2022-12-17T19:12:10.358Z,-3.03
2022-12-17T19:14:40.733Z,-3.00
2022-12-17T19:17:08.055Z,-3.29
2022-12-17T19:19:35.375Z,-3.15
2022-12-17T19:22:03.417Z,-2.85
2022-12-17T19:24:30.813Z,-3.08
2022-12-17T19:26:58.492Z,-3.36
2022-12-17T19:29:25.820Z,-3.60
2022-12-17T19:31:54.585Z,-3.77
2022-12-17T19:34:22.071Z,-3.45
2022-12-17T19:36:49.405Z,-3.48
2022-12-17T19:39:18.147Z,-3.50
2022-12-17T19:41:45.965Z,-3.76
2022-12-17T19:44:14.320Z,-3.65
2022-12-17T19:46:41.980Z,-3.62
2022-12-17T19:49:11.744Z,-3.79
2022-12-17T19:51:40.566Z,-3.75
2022-12-17T19:54:09.254Z,-3.78
2022-12-17T19:56:37.321Z,-4.08
2022-12-17T19:59:07.067Z,-4.13
2022-12-17T20:01:35.392Z,-4.20
2022-12-17T20:04:03.301Z,-4.21
2022-12-17T20:06:32.808Z,-4.12
2022-12-17T20:09:00.801Z,-4.16
2022-12-17T20:11:34.571Z,-4.30
2022-12-17T20:14:03.574Z,-4.27
2022-12-17T20:16:31.932Z,-4.21
2022-12-17T20:18:59.466Z,-4.23
2022-12-17T20:21:27.056Z,-4.10
2022-12-17T20:23:56.303Z,-3.89
2022-12-17T20:26:24.233Z,-4.33
2022-12-17T20:28:51.812Z,-4.29
2022-12-17T20:31:19.605Z,-4.33
2022-12-17T20:33:47.171Z,-4.62
2022-12-17T20:36:15.955Z,-4.38
2022-12-17T20:38:43.619Z,-4.37
2022-12-17T20:41:13.125Z,-4.70
2022-12-17T20:43:40.749Z,-4.75
2022-12-17T20:46:09.561Z,-4.67
2022-12-17T20:48:37.381Z,-4.87
2022-12-17T20:51:06.190Z,-4.96
2022-12-17T20:53:34.409Z,-5.00
2022-12-17T20:56:02.256Z,-4.95
2022-12-17T20:58:31.277Z,-4.98
2022-12-17T21:01:05.555Z,-5.06
2022-12-17T21:03:33.453Z,-5.12
2022-12-17T21:06:07.955Z,-5.01
2022-12-17T21:08:35.680Z,-5.07
2022-12-17T21:11:03.223Z,-5.13
2022-12-17T21:13:31.947Z,-5.18
2022-12-17T21:16:00.166Z,-5.03
2022-12-17T21:18:27.835Z,-5.04
2022-12-17T21:20:56.121Z,-4.97
2022-12-17T21:23:23.434Z,-5.10
2022-12-17T21:25:57.846Z,-5.34
2022-12-17T21:28:25.699Z,-5.05
2022-12-17T21:30:54.449Z,-5.15
2022-12-17T21:33:21.974Z,-5.16
2022-12-17T21:35:49.466Z,-5.33
2022-12-17T21:38:16.851Z,-5.44
2022-12-17T21:40:44.174Z,-5.40
2022-12-17T21:43:11.564Z,-5.50
2022-12-17T21:45:39.912Z,-5.62
2022-12-17T21:48:13.006Z,-5.44
2022-12-17T21:50:43.511Z,-5.75
2022-12-17T21:53:11.876Z,-5.82
2022-12-17T21:55:39.381Z,-5.69
2022-12-17T21:58:07.917Z,-5.75
2022-12-17T22:00:35.267Z,-5.44
2022-12-17T22:03:03.450Z,-5.43
2022-12-17T22:05:32.162Z,-5.43
2022-12-17T22:07:59.909Z,-5.55
2022-12-17T22:10:36.913Z,-5.59
2022-12-17T22:13:32.290Z,-5.61
2022-12-17T22:15:59.776Z,-5.51
2022-12-17T22:18:27.149Z,-5.66
2022-12-17T22:20:59.716Z,-5.57
2022-12-17T22:23:27.041Z,-5.68
2022-12-17T22:25:54.679Z,-5.60
2022-12-17T22:28:22.005Z,-5.83
2022-12-17T22:31:08.843Z,-5.74
2022-12-17T22:33:50.804Z,-5.82
2022-12-17T22:39:34.894Z,-5.61
2022-12-17T22:43:13.481Z,-5.93
2022-12-17T22:44:45.327Z,-6.32
2022-12-17T22:45:10.607Z,-6.34
2022-12-17T22:47:38.967Z,-6.09
2022-12-17T22:50:07.026Z,-6.14
2022-12-17T22:52:36.312Z,-6.16
2022-12-17T22:55:04.532Z,-5.92
2022-12-17T22:57:36.775Z,-5.91
2022-12-17T23:00:07.418Z,-5.93
2022-12-17T23:02:34.786Z,-6.10
2022-12-17T23:05:02.204Z,-6.36
2022-12-17T23:07:31.920Z,-6.53
2022-12-17T23:10:00.862Z,-6.53
2022-12-17T23:12:45.868Z,-6.60
2022-12-17T23:15:13.341Z,-6.37
2022-12-17T23:17:40.991Z,-6.16
2022-12-17T23:20:08.866Z,-6.26
2022-12-17T23:22:36.179Z,-6.33
2022-12-17T23:25:05.165Z,-6.21
2022-12-17T23:27:32.490Z,-6.44
2022-12-17T23:29:59.829Z,-6.32
2022-12-17T23:32:27.251Z,-6.44
2022-12-17T23:34:54.561Z,-6.58
2022-12-17T23:37:21.890Z,-6.65
2022-12-17T23:39:49.220Z,-6.81
2022-12-17T23:42:17.993Z,-6.86
2022-12-17T23:44:45.302Z,-6.63
2022-12-17T23:47:12.642Z,-6.62
2022-12-17T23:49:39.956Z,-6.63
2022-12-17T23:52:07.300Z,-6.64
2022-12-17T23:54:36.824Z,-6.82
2022-12-17T23:57:04.167Z,-6.73
2022-12-17T23:59:32.858Z,-6.63
